Time;durP1;ratioP1;P1;durP2;ratioP2;P2;SDS_P1;SDS_P2;PMS_P1;PMS_P2;Temp;Humidity;BMP_temperature;BMP_pressure;BME280_temperature;BME280_humidity;BME280_pressure;Samples;Min_cycle;Max_cycle;Signal;HPM_P1;HPM_P2
2023/01/11 00:01:57;;;;;;;15.38;11.63;;;;;;;1.92;100.00;92504.88;5078134;28;20049;-69
2023/01/11 00:04:28;;;;;;;16.35;11.55;;;;;;;1.95;100.00;92514.66;5078352;28;20052;-69
2023/01/11 00:06:57;;;;;;;16.80;12.40;;;;;;;1.94;100.00;92508.00;5077821;28;20059;-68
2023/01/11 00:09:24;;;;;;;17.70;12.40;;;;;;;1.97;100.00;92511.94;5085605;28;20443;-68
2023/01/11 00:11:51;;;;;;;15.18;10.30;;;;;;;1.96;100.00;92508.63;5088096;28;20573;-69
2023/01/11 00:14:18;;;;;;;15.77;11.18;;;;;;;1.96;100.00;92515.44;5088565;28;20048;-68
2023/01/11 00:16:44;;;;;;;16.15;11.18;;;;;;;1.92;100.00;92509.94;5088942;28;20117;-68
2023/01/11 00:19:11;;;;;;;18.02;11.55;;;;;;;1.94;100.00;92510.53;5088500;28;20105;-68
2023/01/11 00:21:38;;;;;;;16.30;12.32;;;;;;;1.94;100.00;92504.72;5088739;28;20085;-68
2023/01/11 00:24:06;;;;;;;19.30;12.45;;;;;;;1.90;100.00;92501.72;5092671;28;20113;-68
2023/01/11 00:26:33;;;;;;;17.63;11.25;;;;;;;1.93;100.00;92503.91;5092613;28;20093;-69
2023/01/11 00:29:00;;;;;;;14.80;10.00;;;;;;;1.94;100.00;92508.00;5092320;28;20109;-68
2023/01/11 00:31:26;;;;;;;15.15;10.75;;;;;;;1.97;100.00;92509.41;5092520;28;20597;-68
2023/01/11 00:33:53;;;;;;;16.95;10.85;;;;;;;1.98;100.00;92513.50;5092540;28;20434;-68
2023/01/11 00:36:20;;;;;;;13.48;10.00;;;;;;;1.93;100.00;92510.72;5092370;28;20048;-68
2023/01/11 00:38:50;;;;;;;11.80;7.32;;;;;;;1.94;100.00;92519.91;5092632;28;20057;-68
2023/01/11 00:49:39;;;;;;;6.90;4.45;;;;;;;1.78;100.00;92521.63;5091881;28;20098;-68
2023/01/11 00:52:07;;;;;;;8.70;4.47;;;;;;;1.73;100.00;92513.75;5092335;28;20113;-68
2023/01/11 00:54:34;;;;;;;6.95;4.38;;;;;;;1.81;100.00;92523.81;5091649;28;20048;-68
2023/01/11 00:57:05;;;;;;;7.82;5.15;;;;;;;1.84;100.00;92520.94;5091908;28;20052;-68
2023/01/11 00:59:32;;;;;;;7.78;5.15;;;;;;;1.87;100.00;92525.63;5091906;28;20048;-68
2023/01/11 01:01:58;;;;;;;8.40;5.32;;;;;;;1.86;100.00;92523.31;5092447;28;20044;-68
2023/01/11 01:04:25;;;;;;;10.27;6.95;;;;;;;1.87;100.00;92525.63;5092100;28;20044;-69
2023/01/11 01:06:52;;;;;;;10.35;7.25;;;;;;;1.87;100.00;92535.00;5091913;28;20090;-68
2023/01/11 01:09:18;;;;;;;11.77;7.80;;;;;;;1.88;100.00;92518.84;5091537;28;20101;-68
2023/01/11 01:11:45;;;;;;;10.35;7.68;;;;;;;1.85;100.00;92522.50;5092016;28;20048;-68
2023/01/11 01:14:27;;;;;;;9.85;6.35;;;;;;;1.81;100.00;92511.13;5091355;28;20052;-68
2023/01/11 01:16:54;;;;;;;11.82;6.20;;;;;;;1.86;100.00;92524.06;5091324;28;20492;-68
2023/01/11 01:19:21;;;;;;;8.60;6.57;;;;;;;1.83;100.00;92519.38;5091794;28;20052;-69
2023/01/11 01:21:48;;;;;;;8.13;6.00;;;;;;;1.83;100.00;92521.91;5091566;28;20059;-69
2023/01/11 01:24:15;;;;;;;7.53;5.18;;;;;;;1.84;100.00;92520.94;5091358;28;20506;-69
2023/01/11 01:26:42;;;;;;;7.85;4.80;;;;;;;1.83;100.00;92511.78;5091538;28;20097;-68
2023/01/11 01:29:10;;;;;;;7.30;5.05;;;;;;;1.85;100.00;92516.66;5091456;28;20108;-68
2023/01/11 01:31:57;;;;;;;6.35;4.32;;;;;;;1.86;100.00;92516.47;5091347;28;20055;-68
2023/01/11 01:34:24;;;;;;;7.15;4.32;;;;;;;1.84;100.00;92518.41;5090124;28;20063;-68
2023/01/11 01:36:50;;;;;;;8.27;5.30;;;;;;;1.77;100.00;92525.13;5091278;28;20412;-68
2023/01/11 01:39:17;;;;;;;11.43;8.75;;;;;;;1.71;100.00;92524.06;5091209;28;20515;-70
2023/01/11 01:41:44;;;;;;;9.43;6.55;;;;;;;1.75;100.00;92527.03;5091457;28;20165;-69
2023/01/11 01:44:47;;;;;;;15.07;11.07;;;;;;;1.60;100.00;92524.47;5091148;28;20431;-69
2023/01/11 01:47:16;;;;;;;14.23;10.25;;;;;;;1.61;100.00;92518.44;5081053;28;20044;-69
2023/01/11 01:49:45;;;;;;;14.50;9.35;;;;;;;1.65;100.00;92522.22;5090912;28;20105;-69
2023/01/11 01:52:13;;;;;;;12.23;8.63;;;;;;;1.67;100.00;92517.75;5090747;28;20078;-69
2023/01/11 01:54:44;;;;;;;14.18;9.85;;;;;;;1.69;100.00;92525.19;5090647;28;20378;-69
2023/01/11 01:57:15;;;;;;;14.88;10.18;;;;;;;1.68;100.00;92521.09;5090548;28;20052;-69
2023/01/11 01:59:42;;;;;;;18.77;12.57;;;;;;;1.68;100.00;92531.22;5090783;28;20063;-69
2023/01/11 02:02:09;;;;;;;15.07;10.55;;;;;;;1.69;100.00;92530.25;5091014;28;20109;-69
2023/01/11 02:04:40;;;;;;;15.18;10.80;;;;;;;1.70;100.00;92536.88;5090883;28;20040;-69
2023/01/11 02:07:11;;;;;;;15.07;10.25;;;;;;;1.70;100.00;92532.63;5090437;28;20044;-69
2023/01/11 02:09:44;;;;;;;15.25;9.75;;;;;;;1.71;100.00;92525.81;5090469;28;20060;-69
2023/01/11 02:12:11;;;;;;;13.43;9.38;;;;;;;1.65;100.00;92532.34;5090616;28;20534;-69
2023/01/11 02:14:40;;;;;;;11.70;7.93;;;;;;;1.60;100.00;92535.41;5090745;28;20044;-69
2023/01/11 02:17:08;;;;;;;11.18;8.57;;;;;;;1.67;100.00;92534.72;5090714;28;20070;-69
2023/01/11 02:19:52;;;;;;;8.55;5.80;;;;;;;1.65;100.00;92529.81;5090242;28;20051;-70
2023/01/11 02:22:55;;;;;;;7.83;6.20;;;;;;;1.71;100.00;92530.88;5090631;28;20040;-69
2023/01/11 02:25:54;;;;;;;6.53;5.10;;;;;;;1.68;100.00;92539.59;5087623;28;20101;-69
2023/01/11 02:28:29;;;;;;;8.27;5.40;;;;;;;1.57;100.00;92529.91;5085266;28;20101;-69
2023/01/11 02:31:05;;;;;;;4.78;3.00;;;;;;;1.66;100.00;92554.16;5090172;28;20510;-69
2023/01/11 02:33:36;;;;;;;;;;;;;;;1.68;100.00;92544.66;5090630;28;20100;-69
2023/01/11 02:36:12;;;;;;;4.97;3.20;;;;;;;1.64;100.00;92547.69;5090367;28;20330;-69
2023/01/11 02:38:44;;;;;;;7.22;4.70;;;;;;;1.65;100.00;92550.06;5090000;28;20484;-69
2023/01/11 02:41:19;;;;;;;8.45;4.70;;;;;;;1.65;100.00;92556.84;5089945;28;20442;-69
2023/01/11 02:46:44;;;;;;;6.22;4.60;;;;;;;1.69;100.00;92558.09;5089679;28;20063;-69
2023/01/11 02:49:18;;;;;;;9.32;5.75;;;;;;;1.62;100.00;92547.09;5089553;28;20535;-69
2023/01/11 02:51:52;;;;;;;10.73;7.35;;;;;;;1.71;100.00;92562.03;5089510;28;20565;-69
2023/01/11 02:54:22;;;;;;;7.32;4.32;;;;;;;1.71;100.00;92564.56;5089467;28;20055;-69
2023/01/11 02:56:51;;;;;;;6.43;4.32;;;;;;;1.72;100.00;92563.59;5089438;28;20040;-69
2023/01/11 02:59:22;;;;;;;8.70;5.28;;;;;;;1.68;100.00;92554.00;5089379;28;20121;-69
2023/01/11 03:01:51;;;;;;;8.63;6.18;;;;;;;1.75;100.00;92562.47;5089475;28;20101;-69
2023/01/11 03:04:23;;;;;;;9.00;6.43;;;;;;;1.71;100.00;92566.34;5089669;28;20071;-69
2023/01/11 03:07:00;;;;;;;9.40;7.07;;;;;;;1.71;100.00;92569.63;5088959;28;20385;-69
2023/01/11 03:09:38;;;;;;;10.82;7.55;;;;;;;1.72;100.00;92571.19;5089021;28;20093;-69
2023/01/11 03:15:27;;;;;;;8.90;6.13;;;;;;;1.75;100.00;92576.91;5089018;28;20055;-69
2023/01/11 03:18:03;;;;;;;10.20;6.38;;;;;;;1.68;100.00;92579.31;5089134;28;20044;-69
2023/01/11 03:20:35;;;;;;;6.85;5.47;;;;;;;1.67;100.00;92585.34;5088797;28;20043;-69
2023/01/11 03:23:15;;;;;;;8.77;6.00;;;;;;;1.60;100.00;92572.56;5088907;28;20106;-69
2023/01/11 03:25:55;;;;;;;10.02;6.50;;;;;;;1.66;100.00;92587.06;5088682;28;20040;-69
2023/01/11 03:28:30;;;;;;;8.88;5.63;;;;;;;1.65;100.00;92577.13;5088716;28;20508;-69
2023/01/11 03:31:03;;;;;;;9.55;5.70;;;;;;;1.65;100.00;92582.97;5088673;28;20048;-69
2023/01/11 03:33:37;;;;;;;7.88;5.05;;;;;;;1.68;100.00;92586.91;5089007;28;20100;-70
2023/01/11 03:36:10;;;;;;;7.40;5.07;;;;;;;1.46;100.00;92551.31;5088913;28;20078;-69
2023/01/11 03:38:45;;;;;;;6.30;4.75;;;;;;;1.67;100.00;92588.66;5088641;28;20492;-69
2023/01/11 03:41:17;;;;;;;7.90;5.68;;;;;;;1.67;100.00;92588.66;5088770;28;20089;-70
2023/01/11 03:43:46;;;;;;;7.55;5.03;;;;;;;1.66;100.00;92588.84;5088572;28;20086;-69
2023/01/11 03:46:16;;;;;;;6.80;5.03;;;;;;;1.64;100.00;92583.94;5088473;28;20044;-69
2023/01/11 03:48:49;;;;;;;7.85;5.43;;;;;;;1.62;100.00;92582.53;5088769;28;20094;-69
2023/01/11 03:51:20;;;;;;;7.75;5.53;;;;;;;1.70;100.00;92597.66;5088754;28;20470;-69
2023/01/11 03:53:50;;;;;;;7.68;5.10;;;;;;;1.65;100.00;92587.25;5088925;28;20554;-69
2023/01/11 03:56:21;;;;;;;10.05;6.15;;;;;;;1.70;100.00;92593.38;5088724;28;20488;-69
2023/01/11 03:58:48;;;;;;;8.25;5.28;;;;;;;1.72;100.00;92598.28;5092167;28;20078;-69
2023/01/11 04:01:16;;;;;;;8.15;5.05;;;;;;;1.72;100.00;92596.53;5092213;28;20094;-69
2023/01/11 04:03:43;;;;;;;7.85;4.95;;;;;;;1.65;100.00;92600.69;5092533;28;20036;-69
2023/01/11 04:06:11;;;;;;;6.93;5.38;;;;;;;1.73;100.00;92605.69;5092799;28;20040;-69
2023/01/11 04:08:38;;;;;;;7.30;5.20;;;;;;;1.75;100.00;92609.81;5092735;28;20097;-68
2023/01/11 04:11:05;;;;;;;8.35;6.10;;;;;;;1.74;100.00;92603.94;5092580;28;20105;-69
2023/01/11 04:13:32;;;;;;;8.43;5.68;;;;;;;1.71;100.00;92605.06;5092225;28;20503;-68
2023/01/11 04:15:59;;;;;;;7.82;5.32;;;;;;;1.72;100.00;92614.25;5092574;28;20070;-69
2023/01/11 04:18:28;;;;;;;9.93;6.45;;;;;;;1.69;100.00;92619.66;5092863;28;20043;-70
2023/01/11 04:20:55;;;;;;;9.60;6.70;;;;;;;1.58;100.00;92600.59;5092035;28;20098;-69
2023/01/11 04:23:22;;;;;;;8.75;6.75;;;;;;;1.71;100.00;92624.56;5091969;28;20541;-69
2023/01/11 04:25:48;;;;;;;11.27;7.95;;;;;;;1.76;100.00;92621.50;5092127;28;20044;-69
2023/01/11 04:28:15;;;;;;;9.77;7.05;;;;;;;1.78;100.00;92622.13;5092399;28;20396;-69
2023/01/11 04:30:42;;;;;;;11.07;7.65;;;;;;;1.77;100.00;92628.94;5092182;28;20043;-69
2023/01/11 04:33:11;;;;;;;10.27;6.57;;;;;;;1.77;100.00;92625.63;5092268;28;20044;-69
2023/01/11 04:35:40;;;;;;;9.85;7.30;;;;;;;1.76;100.00;92629.88;5092200;28;20051;-69
2023/01/11 04:38:06;;;;;;;10.30;7.72;;;;;;;1.74;100.00;92629.28;5089335;28;20553;-70
2023/01/11 04:40:33;;;;;;;13.18;9.38;;;;;;;1.76;100.00;92637.47;5091904;28;20101;-69
2023/01/11 04:43:01;;;;;;;14.02;9.23;;;;;;;1.73;100.00;92636.06;5091658;28;20500;-69
2023/01/11 04:45:28;;;;;;;15.95;10.73;;;;;;;1.69;100.00;92634.84;5091736;28;20044;-69
2023/01/11 04:47:55;;;;;;;17.55;11.63;;;;;;;1.65;100.00;92632.81;5091393;28;20040;-69
2023/01/11 04:50:22;;;;;;;14.32;10.77;;;;;;;1.67;100.00;92646.88;5091692;28;20054;-69
2023/01/11 04:52:51;;;;;;;18.55;11.27;;;;;;;1.67;100.00;92636.75;5091956;28;20093;-69
2023/01/11 04:55:18;;;;;;;20.33;14.63;;;;;;;1.71;100.00;92639.75;5091492;28;20072;-69
2023/01/11 04:57:45;;;;;;;24.63;17.48;;;;;;;1.73;100.00;92643.66;5091944;28;20093;-69
2023/01/11 05:00:14;;;;;;;26.30;17.23;;;;;;;1.76;100.00;92644.31;5091272;28;20040;-69
2023/01/11 05:02:41;;;;;;;40.45;22.88;;;;;;;1.73;100.00;92653.03;5091654;28;20040;-69
2023/01/11 05:05:10;;;;;;;39.25;23.42;;;;;;;1.81;100.00;92652.94;5091171;28;20086;-69
2023/01/11 05:07:38;;;;;;;37.53;22.98;;;;;;;1.84;100.00;92657.69;5091279;28;20470;-69
2023/01/11 05:10:07;;;;;;;39.50;22.48;;;;;;;1.85;100.00;92661.03;5091063;28;20085;-69
2023/01/11 05:12:33;;;;;;;30.77;20.95;;;;;;;1.87;100.00;92657.34;5084665;28;20055;-70
2023/01/11 05:15:00;;;;;;;23.02;16.52;;;;;;;1.87;100.00;92662.41;5089361;28;20470;-70
2023/01/11 05:17:27;;;;;;;19.23;14.18;;;;;;;1.87;100.00;92667.47;5090937;28;20086;-69
2023/01/11 05:19:54;;;;;;;20.23;14.98;;;;;;;1.83;100.00;92673.84;5090933;28;20040;-69
2023/01/11 05:22:20;;;;;;;24.75;18.33;;;;;;;1.84;100.00;92672.09;5091224;28;20059;-69
2023/01/11 05:24:47;;;;;;;25.52;18.70;;;;;;;1.85;100.00;92677.00;5091170;28;20036;-70
2023/01/11 05:27:15;;;;;;;24.33;18.20;;;;;;;1.85;100.00;92681.28;5090580;28;20040;-69
2023/01/11 05:29:42;;;;;;;27.85;19.15;;;;;;;1.83;100.00;92689.03;5090598;28;20047;-69
2023/01/11 05:32:11;;;;;;;29.92;22.05;;;;;;;1.83;100.00;92685.72;5090995;28;20127;-69
2023/01/11 05:34:37;;;;;;;28.17;19.92;;;;;;;1.84;100.00;92692.34;5090018;28;20097;-70
2023/01/11 05:37:04;;;;;;;33.45;21.50;;;;;;;1.78;100.00;92691.28;5090710;28;20036;-69
2023/01/11 05:39:31;;;;;;;33.03;22.17;;;;;;;1.85;100.00;92693.94;5090674;28;20044;-70
2023/01/11 05:41:57;;;;;;;33.15;22.45;;;;;;;1.83;100.00;92698.38;5090445;28;20550;-69
2023/01/11 05:47:23;;;;;;;28.45;19.40;;;;;;;1.82;100.00;92702.66;5053748;28;20125;-70
2023/01/11 05:49:49;;;;;;;29.77;19.08;;;;;;;1.82;100.00;92694.28;5090635;28;20047;-70
2023/01/11 05:52:16;;;;;;;27.42;18.40;;;;;;;1.81;100.00;92700.28;5090291;28;20545;-70
2023/01/11 05:54:43;;;;;;;29.92;20.02;;;;;;;1.80;100.00;92712.16;5090336;28;20109;-70
2023/01/11 05:57:10;;;;;;;27.40;18.27;;;;;;;1.77;100.00;92707.44;5090403;28;20769;-70
2023/01/11 05:59:38;;;;;;;40.00;24.73;;;;;;;1.71;100.00;92700.53;5090222;28;20492;-71
2023/01/11 06:02:05;;;;;;;40.90;26.88;;;;;;;1.65;100.00;92712.09;5090331;28;20427;-70
2023/01/11 06:04:32;;;;;;;42.35;27.17;;;;;;;1.68;100.00;92716.03;5089946;28;20044;-70
2023/01/11 06:06:58;;;;;;;52.60;30.27;;;;;;;1.68;100.00;92721.09;5090261;28;20125;-70
2023/01/11 06:09:25;;;;;;;46.78;27.80;;;;;;;1.69;100.00;92720.13;5089978;28;20051;-70
2023/01/11 06:11:52;;;;;;;40.40;25.40;;;;;;;1.69;100.00;92720.13;5090184;28;20116;-70
2023/01/11 06:14:19;;;;;;;38.05;24.83;;;;;;;1.67;100.00;92719.53;5090209;28;20180;-70
2023/01/11 06:16:47;;;;;;;35.92;21.52;;;;;;;1.65;100.00;92729.81;5089868;28;20040;-70
2023/01/11 06:19:13;;;;;;;34.58;22.77;;;;;;;1.67;100.00;92732.97;5089595;28;20048;-70
2023/01/11 06:21:40;;;;;;;35.33;23.70;;;;;;;1.66;100.00;92728.84;5089298;28;20048;-70
2023/01/11 06:24:07;;;;;;;38.47;24.63;;;;;;;1.68;100.00;92737.09;5089711;28;20036;-70
2023/01/11 06:26:34;;;;;;;40.40;26.40;;;;;;;1.69;100.00;92736.13;5090084;28;20099;-70
2023/01/11 06:29:01;;;;;;;42.35;26.77;;;;;;;1.68;100.00;92742.16;5089727;28;20051;-70
2023/01/11 06:31:27;;;;;;;36.25;24.88;;;;;;;1.70;100.00;92744.50;5089630;28;20044;-70
2023/01/11 06:33:55;;;;;;;31.88;21.95;;;;;;;1.70;100.00;92750.38;5089555;28;20036;-70
2023/01/11 06:36:22;;;;;;;34.10;20.27;;;;;;;1.72;100.00;92745.91;5089535;28;20548;-70
2023/01/11 06:38:49;;;;;;;28.38;19.15;;;;;;;1.75;100.00;92756.69;5089865;28;20044;-70
2023/01/11 06:41:15;;;;;;;26.05;17.45;;;;;;;1.79;100.00;92757.91;5089902;28;20044;-70
2023/01/11 06:43:42;;;;;;;25.52;17.63;;;;;;;1.78;100.00;92762.19;5089388;28;20044;-70
2023/01/11 06:46:14;;;;;;;50.92;27.30;;;;;;;1.80;100.00;92764.56;5089538;28;20105;-70
2023/01/11 06:48:41;;;;;;;34.25;20.08;;;;;;;1.83;100.00;92766.75;5089248;28;20474;-70
2023/01/11 06:51:10;;;;;;;26.85;16.95;;;;;;;1.84;100.00;92770.84;5089081;28;20496;-70
2023/01/11 06:53:38;;;;;;;25.77;16.80;;;;;;;1.88;100.00;92777.16;5089126;28;20238;-70
2023/01/11 06:56:05;;;;;;;20.65;15.25;;;;;;;1.90;100.00;92772.72;5089122;28;20048;-70
2023/01/11 06:58:36;;;;;;;17.70;11.52;;;;;;;1.94;100.00;92770.66;5088988;28;20491;-71
2023/01/11 07:01:03;;;;;;;14.95;10.35;;;;;;;1.95;100.00;92774.78;5088856;28;20044;-70
2023/01/11 07:03:30;;;;;;;16.70;10.48;;;;;;;1.98;100.00;92779.47;5088953;28;20074;-70
2023/01/11 07:05:58;;;;;;;13.75;10.32;;;;;;;2.00;100.00;92777.59;5089329;28;20130;-70
2023/01/11 07:08:27;;;;;;;34.50;17.45;;;;;;;2.02;100.00;92783.25;5088693;28;20047;-70
2023/01/11 07:10:54;;;;;;;22.45;12.75;;;;;;;2.03;100.00;92779.00;5075720;28;20045;-70
2023/01/11 07:13:22;;;;;;;25.35;12.50;;;;;;;2.11;100.00;92784.00;5068536;28;20053;-70
2023/01/11 07:15:52;;;;;;;22.58;13.00;;;;;;;2.13;100.00;92790.47;5068919;28;21094;-70
2023/01/11 07:18:19;;;;;;;25.15;14.80;;;;;;;2.16;100.00;92793.66;5068982;28;20044;-70
2023/01/11 07:20:46;;;;;;;48.55;31.65;;;;;;;2.16;100.00;92796.97;5069034;28;20044;-70
2023/01/11 07:23:13;;;;;;;39.05;24.40;;;;;;;2.16;100.00;92799.50;5081048;28;20496;-70
2023/01/11 07:25:41;;;;;;;28.73;18.60;;;;;;;2.19;100.00;92796.63;5089097;28;20040;-70
2023/01/11 07:28:08;;;;;;;27.42;18.13;;;;;;;2.21;100.00;92807.38;5089481;28;20462;-70
2023/01/11 07:30:37;;;;;;;23.65;15.10;;;;;;;2.27;100.00;92818.59;5089282;28;20041;-70
2023/01/11 07:33:05;;;;;;;21.92;13.98;;;;;;;2.13;100.00;92787.94;5088890;28;20052;-70
2023/01/11 07:35:32;;;;;;;20.85;14.60;;;;;;;2.39;100.00;92824.06;5089048;28;20048;-70
2023/01/11 07:37:58;;;;;;;27.45;20.73;;;;;;;2.31;100.00;92813.97;5088774;28;20504;-70
2023/01/11 07:40:25;;;;;;;32.40;22.95;;;;;;;2.41;100.00;92827.22;5088952;28;20039;-70
2023/01/11 07:45:43;;;;;;;36.08;26.55;;;;;;;2.46;100.00;92844.47;5081952;28;20052;-70
2023/01/11 07:48:10;;;;;;;47.85;32.67;;;;;;;2.48;100.00;92842.53;5089055;28;20162;-70
2023/01/11 07:50:39;;;;;;;53.08;34.72;;;;;;;2.51;100.00;92842.97;5088682;28;20044;-69
2023/01/11 07:53:05;;;;;;;65.60;40.55;;;;;;;2.61;100.00;92850.38;5089089;28;20048;-69
2023/01/11 07:55:32;;;;;;;63.72;44.63;;;;;;;2.66;100.00;92847.31;5088992;28;20124;-69
2023/01/11 07:58:01;;;;;;;69.50;46.40;;;;;;;2.69;100.00;92857.16;5085677;28;20044;-69
2023/01/11 08:00:29;;;;;;;74.93;50.83;;;;;;;2.71;100.00;92855.22;5086782;28;20048;-69
2023/01/11 08:02:55;;;;;;;80.45;53.58;;;;;;;2.74;100.00;92861.69;5087797;28;20454;-69
2023/01/11 08:05:23;;;;;;;77.82;50.22;;;;;;;2.79;100.00;92859.44;5088742;28;20094;-69
2023/01/11 08:07:50;;;;;;;82.55;49.47;;;;;;;2.86;100.00;92859.56;5084592;28;20043;-69
2023/01/11 08:10:17;;;;;;;71.07;43.00;;;;;;;2.93;100.00;92868.81;5068240;28;20048;-69
2023/01/11 08:15:32;;;;;;;49.60;28.13;;;;;;;2.97;100.00;92864.22;5086786;28;20439;-69
2023/01/11 08:17:59;;;;;;;47.83;28.08;;;;;;;3.04;100.00;92866.84;5088325;28;20048;-69
2023/01/11 08:20:27;;;;;;;47.30;27.95;;;;;;;2.99;100.00;92859.75;5088294;28;20048;-69
2023/01/11 08:22:54;;;;;;;55.45;31.17;;;;;;;3.16;100.00;92875.59;5088219;28;20127;-69
2023/01/11 08:25:21;;;;;;;54.38;32.33;;;;;;;3.20;100.00;92871.78;5088866;28;20101;-69
2023/01/11 08:27:48;;;;;;;47.65;30.85;;;;;;;3.22;100.00;92881.75;5088475;28;20093;-69
2023/01/11 08:30:15;;;;;;;49.53;31.20;;;;;;;3.22;100.00;92884.31;5088446;28;20052;-69
2023/01/11 08:32:43;;;;;;;42.85;28.25;;;;;;;3.23;100.00;92895.25;5088758;28;20097;-69
2023/01/11 08:35:10;;;;;;;50.42;31.20;;;;;;;3.20;100.00;92898.94;5088607;28;20044;-69
2023/01/11 08:37:37;;;;;;;47.83;31.17;;;;;;;3.17;100.00;92901.78;5088707;28;20055;-69
2023/01/11 08:40:04;;;;;;;58.88;35.10;;;;;;;3.13;100.00;92908.97;5088553;28;20052;-69
2023/01/11 08:42:31;;;;;;;54.95;38.95;;;;;;;3.15;100.00;92904.50;5088486;28;20448;-70
2023/01/11 08:44:58;;;;;;;368.80;179.30;;;;;;;3.21;100.00;92918.25;5092214;28;20051;-69
2023/01/11 08:47:24;;;;;;;60.65;42.60;;;;;;;3.26;100.00;92921.06;5092416;28;20408;-69
2023/01/11 08:49:53;;;;;;;49.95;35.67;;;;;;;3.20;100.00;92907.31;5091677;28;20549;-69
2023/01/11 08:52:20;;;;;;;63.70;41.15;;;;;;;3.32;100.00;92919.59;5092028;28;20109;-69
2023/01/11 08:54:47;;;;;;;305.92;161.35;;;;;;;3.44;100.00;92920.78;5091678;28;20550;-69
2023/01/11 08:57:13;;;;;;;99.63;61.35;;;;;;;3.54;100.00;92919.72;5091935;28;20044;-69
2023/01/11 08:59:40;;;;;;;61.17;41.10;;;;;;;3.59;100.00;92920.78;5091627;28;20094;-70
2023/01/11 09:02:07;;;;;;;53.00;32.83;;;;;;;3.53;100.00;92928.31;5092207;28;20446;-69
2023/01/11 09:04:35;;;;;;;43.50;29.17;;;;;;;3.50;100.00;92928.63;5091773;28;20044;-69
2023/01/11 09:07:03;;;;;;;57.72;38.85;;;;;;;3.52;100.00;92929.28;5091865;28;20040;-69
2023/01/11 09:09:30;;;;;;;29.88;21.67;;;;;;;3.45;100.00;92922.34;5091681;28;20139;-69
2023/01/11 09:11:59;;;;;;;45.10;24.50;;;;;;;3.46;100.00;92926.44;5091870;28;20070;-69
2023/01/11 09:14:27;;;;;;;22.08;15.13;;;;;;;3.46;100.00;92921.38;5080117;28;20048;-69
2023/01/11 09:16:55;;;;;;;20.55;14.27;;;;;;;3.25;100.00;92936.47;5091546;28;20043;-70
2023/01/11 09:19:21;;;;;;;21.85;15.02;;;;;;;2.96;100.00;92935.44;5091543;28;20044;-70
2023/01/11 09:21:48;;;;;;;17.63;12.75;;;;;;;2.97;100.00;92937.81;5091672;28;20052;-69
2023/01/11 09:24:17;;;;;;;15.82;11.95;;;;;;;3.08;100.00;92939.13;5091305;28;20076;-70
2023/01/11 09:26:43;;;;;;;7.35;5.53;;;;;;;2.97;100.00;92937.81;5091581;28;20044;-70
2023/01/11 09:29:11;;;;;;;4.22;2.85;;;;;;;2.67;100.00;92946.06;5091606;28;20094;-71
2023/01/11 09:31:37;;;;;;;6.00;4.43;;;;;;;2.63;100.00;92939.75;5091070;28;20048;-70
2023/01/11 09:34:05;;;;;;;5.95;3.50;;;;;;;2.55;100.00;92932.19;5091597;28;20170;-71
2023/01/11 09:36:34;;;;;;;2.65;1.67;;;;;;;2.50;100.00;92935.22;5091174;28;20051;-71
2023/01/11 09:39:06;;;;;;;6.30;4.78;;;;;;;2.27;100.00;92941.03;5089280;28;20488;-71
2023/01/11 09:42:04;;;;;;;6.85;4.03;;;;;;;2.38;100.00;92936.56;5072479;28;20094;-71
2023/01/11 09:44:32;;;;;;;5.50;3.05;;;;;;;2.44;100.00;92938.41;5070543;28;20048;-71
2023/01/11 09:47:17;;;;;;;4.75;2.80;;;;;;;2.35;100.00;92940.22;5080174;28;20055;-71
2023/01/11 09:49:53;;;;;;;4.82;3.22;;;;;;;2.53;100.00;92934.91;5090952;28;20101;-72
2023/01/11 09:52:27;;;;;;;4.07;2.50;;;;;;;2.57;100.00;92944.69;5089882;28;20048;-71
2023/01/11 09:55:01;;;;;;;6.03;3.53;;;;;;;2.70;100.00;92944.16;5068935;28;20060;-73
2023/01/11 09:57:45;;;;;;;5.35;3.42;;;;;;;2.51;100.00;92946.94;5069569;28;20051;-72
2023/01/11 10:00:25;;;;;;;4.30;2.55;;;;;;;2.50;100.00;92909.84;5070356;28;20052;-71
2023/01/11 10:03:12;;;;;;;7.30;4.70;;;;;;;2.50;100.00;92947.13;5070032;28;20041;-71
2023/01/11 10:06:00;;;;;;;8.38;4.88;;;;;;;2.47;100.00;92939.84;5070116;28;20043;-70
2023/01/11 10:08:42;;;;;;;4.75;2.50;;;;;;;2.45;100.00;92950.13;5070067;28;20079;-70
2023/01/11 10:11:22;;;;;;;3.38;2.38;;;;;;;2.24;100.00;92945.66;5075271;28;20171;-70
2023/01/11 10:13:59;;;;;;;2.70;1.77;;;;;;;2.27;100.00;92940.25;5090650;28;20051;-69
2023/01/11 10:16:37;;;;;;;4.53;3.08;;;;;;;2.28;100.00;92939.28;5079198;28;20056;-69
2023/01/11 10:19:13;;;;;;;9.43;6.55;;;;;;;2.33;100.00;92942.13;5090880;28;20127;-69
2023/01/11 10:21:46;;;;;;;3.45;2.70;;;;;;;2.55;100.00;92939.81;5089904;28;20044;-69
2023/01/11 10:24:20;;;;;;;4.07;3.20;;;;;;;2.71;100.00;92941.44;5090106;28;20523;-69
2023/01/11 10:26:50;;;;;;;4.13;2.75;;;;;;;2.85;100.00;92936.59;5090263;28;20040;-69
2023/01/11 10:29:38;;;;;;;4.30;3.15;;;;;;;2.98;100.00;92938.56;5090570;28;20044;-69
2023/01/11 10:32:33;;;;;;;5.18;4.10;;;;;;;3.14;100.00;92948.59;5090297;28;20058;-69
2023/01/11 10:35:23;;;;;;;3.33;2.83;;;;;;;3.10;100.00;92956.75;5089924;28;20545;-69
2023/01/11 10:38:06;;;;;;;4.07;3.03;;;;;;;3.23;100.00;92948.56;5090304;28;20044;-69
2023/01/11 10:41:02;;;;;;;6.38;3.53;;;;;;;3.36;100.00;92947.94;5089783;28;20089;-69
2023/01/11 10:43:31;;;;;;;11.07;5.57;;;;;;;3.38;100.00;92956.97;5089996;28;20147;-69
2023/01/11 10:46:05;;;;;;;86.07;40.35;;;;;;;3.44;100.00;92956.31;5090132;28;20044;-69
2023/01/11 10:48:35;;;;;;;5.65;2.97;;;;;;;3.23;100.00;92956.94;5090005;28;20051;-69
2023/01/11 10:51:11;;;;;;;10.95;6.50;;;;;;;3.05;100.00;92960.56;5090051;28;20048;-69
2023/01/11 10:53:43;;;;;;;12.20;7.97;;;;;;;3.00;100.00;92949.38;5089888;28;20079;-69
2023/01/11 10:56:21;;;;;;;13.02;8.45;;;;;;;3.02;100.00;92952.50;5089526;28;20429;-69
2023/01/11 10:59:06;;;;;;;7.45;5.50;;;;;;;2.62;100.00;92955.13;5090071;28;20040;-69
2023/01/11 11:01:49;;;;;;;7.57;5.95;;;;;;;2.66;100.00;92947.03;5089465;28;20062;-69
2023/01/11 11:04:28;;;;;;;5.57;4.07;;;;;;;2.75;100.00;92946.97;5089468;28;20040;-69
2023/01/11 11:07:04;;;;;;;3.35;2.50;;;;;;;2.70;100.00;92944.16;5076772;28;20040;-69
2023/01/11 11:09:42;;;;;;;3.50;2.60;;;;;;;2.65;100.00;92935.28;5089612;28;20048;-69
2023/01/11 11:12:13;;;;;;;3.70;2.45;;;;;;;2.62;100.00;92932.31;5089345;28;20073;-69
2023/01/11 11:14:47;;;;;;;4.22;2.53;;;;;;;2.70;100.00;92942.41;5089719;28;20450;-69
2023/01/11 11:17:23;;;;;;;3.15;2.00;;;;;;;2.73;100.00;92931.13;5089555;28;20044;-69
2023/01/11 11:19:51;;;;;;;5.47;4.40;;;;;;;2.72;100.00;92932.09;5089279;28;20040;-69
2023/01/11 11:22:18;;;;;;;18.58;8.48;;;;;;;2.48;100.00;92928.72;5089366;28;20048;-69
2023/01/11 11:24:49;;;;;;;9.60;5.75;;;;;;;2.61;100.00;92934.06;5089456;28;20093;-69
2023/01/11 11:27:22;;;;;;;6.13;3.03;;;;;;;2.41;100.00;92948.91;5089105;28;20059;-69
2023/01/11 11:29:55;;;;;;;4.47;3.03;;;;;;;2.29;100.00;92918.06;5089574;28;20052;-69
2023/01/11 11:32:30;;;;;;;5.22;4.15;;;;;;;2.52;100.00;92933.31;5089227;28;20048;-70
2023/01/11 11:34:57;;;;;;;6.32;4.07;;;;;;;2.59;100.00;92927.56;5089294;28;20052;-69
2023/01/11 11:37:26;;;;;;;4.93;2.33;;;;;;;2.55;100.00;92929.66;5089404;28;20052;-69
2023/01/11 11:39:55;;;;;;;2.92;1.83;;;;;;;2.40;100.00;92932.09;5089375;28;20101;-69
2023/01/11 11:42:22;;;;;;;12.05;4.78;;;;;;;2.54;100.00;92933.13;5089111;28;20093;-69
2023/01/11 11:45:19;;;;;;;3.58;2.45;;;;;;;2.62;100.00;92938.16;5088980;28;20048;-69
2023/01/11 11:48:05;;;;;;;3.78;2.63;;;;;;;2.67;100.00;92940.19;5006694;28;20045;-69
2023/01/11 11:50:32;;;;;;;6.10;3.60;;;;;;;2.74;100.00;92935.25;5080199;28;20050;-69
2023/01/11 11:53:03;;;;;;;5.15;2.88;;;;;;;2.94;100.00;92928.78;5089249;28;20117;-69
2023/01/11 11:55:32;;;;;;;3.38;2.67;;;;;;;2.95;100.00;92921.94;5089127;28;20048;-70
2023/01/11 11:58:04;;;;;;;3.30;2.40;;;;;;;2.98;100.00;92923.34;5089064;28;20044;-70
2023/01/11 12:00:38;;;;;;;5.72;4.15;;;;;;;3.16;100.00;92925.59;5089265;28;20044;-70
2023/01/11 12:03:15;;;;;;;5.90;2.85;;;;;;;3.00;100.00;92939.97;5089436;28;20056;-69